createdAt,value
2023-03-12T00:01:21.443Z,1.30
2023-03-12T00:03:49.066Z,1.42
2023-03-12T00:06:16.825Z,1.60
2023-03-12T00:08:43.300Z,1.65
2023-03-12T00:11:12.656Z,1.38
2023-03-12T00:13:40.241Z,1.50
2023-03-12T00:16:15.252Z,1.30
2023-03-12T00:18:43.327Z,1.23
2023-03-12T00:21:10.158Z,1.40
2023-03-12T00:23:37.709Z,1.33
2023-03-12T00:26:07.194Z,1.73
2023-03-12T00:28:35.000Z,1.35
2023-03-12T00:31:03.176Z,1.33
2023-03-12T00:33:30.744Z,1.30
2023-03-12T00:36:00.258Z,1.10
2023-03-12T00:38:26.775Z,1.75
2023-03-12T00:40:53.439Z,1.20
2023-03-12T00:43:20.359Z,1.40
2023-03-12T00:45:46.892Z,1.02
2023-03-12T00:48:13.375Z,1.38
2023-03-12T00:50:39.973Z,1.35
2023-03-12T00:53:06.562Z,1.08
2023-03-12T00:55:33.189Z,1.20
2023-03-12T00:57:59.749Z,1.27
2023-03-12T01:00:26.386Z,1.20
2023-03-12T01:02:53.671Z,1.42
2023-03-12T01:05:20.323Z,0.93
2023-03-12T01:07:47.430Z,0.88
2023-03-12T01:10:17.763Z,1.30
2023-03-12T01:12:45.696Z,1.35
2023-03-12T01:15:15.538Z,1.10
2023-03-12T01:17:42.189Z,1.38
2023-03-12T01:20:10.077Z,1.35
2023-03-12T01:22:37.527Z,0.93
2023-03-12T01:25:04.428Z,1.33
2023-03-12T01:27:31.347Z,1.13
2023-03-12T01:29:57.832Z,1.17
2023-03-12T01:32:25.380Z,1.02
2023-03-12T01:34:51.995Z,1.08
2023-03-12T01:37:18.563Z,0.95
2023-03-12T01:39:45.075Z,1.05
2023-03-12T01:42:11.585Z,1.08
2023-03-12T01:44:59.157Z,1.27
2023-03-12T01:47:27.422Z,1.00
2023-03-12T01:49:55.968Z,1.00
2023-03-12T01:52:27.052Z,1.20
2023-03-12T01:54:57.784Z,0.90
2023-03-12T01:57:34.409Z,1.10
2023-03-12T02:00:16.049Z,1.10
2023-03-12T02:02:44.876Z,1.55
2023-03-12T02:05:24.869Z,1.33
2023-03-12T02:07:51.398Z,1.23
2023-03-12T02:10:17.973Z,1.52
2023-03-12T02:12:44.694Z,1.20
2023-03-12T02:15:11.763Z,1.60
2023-03-12T02:17:40.374Z,1.38
2023-03-12T02:20:18.297Z,1.30
2023-03-12T02:22:54.579Z,1.50
2023-03-12T02:25:37.230Z,1.35
2023-03-12T02:28:08.835Z,1.52
2023-03-12T02:30:37.119Z,1.45
2023-03-12T02:33:07.052Z,1.27
2023-03-12T02:35:34.192Z,1.38
2023-03-12T02:38:00.856Z,1.63
2023-03-12T02:40:46.154Z,1.42
2023-03-12T02:43:21.691Z,1.77
2023-03-12T02:45:48.539Z,1.70
2023-03-12T02:48:15.274Z,1.50
2023-03-12T02:50:42.661Z,1.67
2023-03-12T02:53:09.104Z,1.52
2023-03-12T02:55:35.649Z,1.55
2023-03-12T02:58:02.346Z,1.73
2023-03-12T03:00:32.214Z,1.20
2023-03-12T03:03:00.273Z,1.70
2023-03-12T03:05:27.154Z,1.63
2023-03-12T03:07:53.692Z,1.90
2023-03-12T03:10:20.225Z,1.42
2023-03-12T03:12:46.842Z,1.50
2023-03-12T03:15:13.704Z,1.60
2023-03-12T03:17:40.383Z,1.55
2023-03-12T03:20:11.055Z,1.80
2023-03-12T03:22:39.169Z,1.40
2023-03-12T03:25:07.730Z,1.73
2023-03-12T03:27:34.259Z,1.40
2023-03-12T03:30:00.891Z,1.40
2023-03-12T03:32:27.606Z,1.45
2023-03-12T03:34:54.109Z,1.25
2023-03-12T03:37:20.981Z,1.50
2023-03-12T03:39:47.781Z,1.50
2023-03-12T03:42:14.387Z,1.23
2023-03-12T03:44:42.113Z,1.30
2023-03-12T03:47:08.613Z,1.42
2023-03-12T03:49:35.106Z,1.80
2023-03-12T03:52:01.747Z,1.58
2023-03-12T03:54:33.947Z,1.25
2023-03-12T03:57:00.802Z,1.38
2023-03-12T03:59:27.686Z,1.30
2023-03-12T04:01:54.428Z,1.27
2023-03-12T04:04:21.077Z,1.10
2023-03-12T04:06:52.014Z,1.42
2023-03-12T04:09:18.702Z,1.33
2023-03-12T04:11:45.499Z,1.40
2023-03-12T04:14:13.232Z,1.20
2023-03-12T04:16:43.403Z,1.27
2023-03-12T04:19:10.149Z,1.30
2023-03-12T04:21:39.467Z,1.70
2023-03-12T04:24:07.938Z,1.50
2023-03-12T04:26:35.134Z,1.30
2023-03-12T04:29:03.352Z,1.30
2023-03-12T04:31:30.140Z,1.20
2023-03-12T04:33:57.109Z,1.50
2023-03-12T04:36:24.849Z,1.15
2023-03-12T04:38:52.739Z,1.30
2023-03-12T04:41:23.825Z,1.73
2023-03-12T04:43:59.174Z,1.58
2023-03-12T04:46:26.597Z,1.30
2023-03-12T04:48:53.109Z,1.73
2023-03-12T04:51:19.571Z,1.30
2023-03-12T04:53:46.210Z,1.83
2023-03-12T04:56:14.831Z,1.60
2023-03-12T04:58:42.591Z,1.55
2023-03-12T05:01:21.846Z,1.60
2023-03-12T05:03:48.392Z,1.85
2023-03-12T05:06:15.137Z,2.28
2023-03-12T05:08:41.608Z,2.10
2023-03-12T05:11:08.143Z,1.65
2023-03-12T05:13:34.831Z,1.88
2023-03-12T05:16:01.465Z,1.77
2023-03-12T05:18:28.246Z,1.67
2023-03-12T05:21:07.510Z,1.42
2023-03-12T05:23:35.640Z,1.80
2023-03-12T05:26:02.523Z,1.85
2023-03-12T05:28:29.489Z,1.75
2023-03-12T05:31:00.365Z,2.10
2023-03-12T05:33:28.587Z,1.77
2023-03-12T05:35:56.530Z,1.88
2023-03-12T05:38:23.434Z,1.70
2023-03-12T05:40:57.159Z,1.77
2023-03-12T05:43:23.811Z,1.92
2023-03-12T05:45:51.579Z,1.80
2023-03-12T05:48:21.447Z,1.70
2023-03-12T05:50:49.225Z,1.67
2023-03-12T05:53:15.814Z,1.75
2023-03-12T05:55:42.694Z,1.88
2023-03-12T05:58:10.082Z,1.88
2023-03-12T06:00:38.905Z,2.30
2023-03-12T06:03:07.893Z,2.20
2023-03-12T06:05:36.161Z,2.80
2023-03-12T06:08:04.144Z,3.03
2023-03-12T06:10:31.072Z,2.58
2023-03-12T06:12:58.271Z,2.45
2023-03-12T06:15:24.779Z,2.22
2023-03-12T06:17:51.396Z,2.40
2023-03-12T06:20:18.237Z,1.92
2023-03-12T06:22:44.728Z,2.20
2023-03-12T06:25:11.334Z,2.40
2023-03-12T06:27:38.668Z,2.55
2023-03-12T06:30:05.789Z,2.17
2023-03-12T06:32:32.435Z,1.77
2023-03-12T06:35:00.791Z,1.90
2023-03-12T06:37:28.166Z,1.63
2023-03-12T06:39:54.836Z,1.90
2023-03-12T06:42:22.556Z,1.85
2023-03-12T06:44:50.288Z,2.22
2023-03-12T06:47:17.764Z,2.00
2023-03-12T06:49:44.667Z,1.90
2023-03-12T06:52:11.215Z,2.30
2023-03-12T06:54:38.264Z,2.00
2023-03-12T06:57:04.957Z,1.83
2023-03-12T06:59:31.411Z,1.90
2023-03-12T07:01:58.429Z,1.70
2023-03-12T07:04:25.097Z,1.70
2023-03-12T07:06:51.585Z,1.90
2023-03-12T07:09:19.096Z,1.90
2023-03-12T07:11:46.147Z,1.73
2023-03-12T07:14:12.649Z,1.70
2023-03-12T07:16:39.271Z,1.55
2023-03-12T07:19:06.188Z,1.50
2023-03-12T07:21:32.765Z,1.73
2023-03-12T07:24:00.796Z,1.65
2023-03-12T07:26:27.489Z,1.52
2023-03-12T07:28:54.037Z,1.88
2023-03-12T07:31:20.702Z,2.08
2023-03-12T07:33:47.428Z,1.80
2023-03-12T07:36:14.246Z,2.03
2023-03-12T07:38:40.939Z,1.73
2023-03-12T07:41:07.493Z,2.00
2023-03-12T07:43:34.005Z,1.60
2023-03-12T07:46:00.667Z,2.17
2023-03-12T07:48:27.287Z,1.70
2023-03-12T07:50:53.812Z,2.00
2023-03-12T07:53:20.336Z,2.05
2023-03-12T07:55:48.297Z,1.70
2023-03-12T07:58:16.124Z,2.03
2023-03-12T08:00:42.872Z,1.90
2023-03-12T08:03:09.758Z,1.83
2023-03-12T08:05:36.552Z,1.88
2023-03-12T08:08:04.049Z,1.95
2023-03-12T08:10:30.981Z,1.77
2023-03-12T08:12:57.824Z,2.15
2023-03-12T08:15:24.565Z,2.30
2023-03-12T08:17:51.123Z,2.05
2023-03-12T08:20:17.737Z,1.77
2023-03-12T08:22:44.362Z,1.92
2023-03-12T08:25:11.518Z,1.77
2023-03-12T08:27:38.454Z,1.50
2023-03-12T08:30:06.449Z,1.58
2023-03-12T08:32:33.188Z,1.70
2023-03-12T08:34:59.934Z,2.03
2023-03-12T08:37:26.415Z,1.60
2023-03-12T08:39:52.851Z,2.13
2023-03-12T08:42:19.365Z,1.90
2023-03-12T08:44:45.895Z,1.92
2023-03-12T08:47:12.371Z,1.42
2023-03-12T08:49:38.819Z,1.45
2023-03-12T08:52:05.363Z,1.35
2023-03-12T08:54:31.903Z,1.50
2023-03-12T08:56:58.412Z,1.38
2023-03-12T08:59:25.117Z,1.55
2023-03-12T09:01:51.663Z,1.50
2023-03-12T09:04:18.760Z,1.23
2023-03-12T09:06:45.268Z,1.73
2023-03-12T09:09:11.797Z,1.23
2023-03-12T09:11:39.839Z,1.63
2023-03-12T09:16:53.706Z,1.65
2023-03-12T09:19:21.048Z,1.38
2023-03-12T09:21:50.098Z,1.40
2023-03-12T09:24:16.549Z,1.20
2023-03-12T09:26:43.054Z,1.50
2023-03-12T09:29:10.015Z,1.38
2023-03-12T09:31:36.648Z,1.73
2023-03-12T09:34:04.699Z,1.45
2023-03-12T09:36:31.784Z,1.52
2023-03-12T09:39:02.402Z,1.40
2023-03-12T09:41:32.437Z,0.98
2023-03-12T09:44:07.798Z,1.27
2023-03-12T09:46:43.204Z,1.08
2023-03-12T09:49:42.758Z,1.50
2023-03-12T09:52:24.541Z,1.25
2023-03-12T09:55:21.555Z,1.60
2023-03-12T09:57:51.225Z,1.10
2023-03-12T10:00:21.754Z,1.45
2023-03-12T10:03:12.644Z,1.33
2023-03-12T10:06:04.083Z,1.20
2023-03-12T10:08:45.510Z,0.95
2023-03-12T10:11:36.664Z,1.20
2023-03-12T10:14:26.789Z,1.17
2023-03-12T10:17:15.450Z,1.15
2023-03-12T10:19:56.950Z,0.80
2023-03-12T10:22:51.771Z,1.20
2023-03-12T10:25:31.993Z,1.40
2023-03-12T10:28:21.069Z,1.15
2023-03-12T10:30:56.158Z,1.55
2023-03-12T10:33:40.041Z,1.25
2023-03-12T10:36:15.140Z,1.40
2023-03-12T10:38:41.619Z,1.42
2023-03-12T10:41:23.248Z,5.13
2023-03-12T10:43:50.028Z,1.60
2023-03-12T10:46:38.360Z,1.50
2023-03-12T10:49:23.118Z,1.65
2023-03-12T10:52:23.145Z,1.65
2023-03-12T10:54:52.793Z,1.35
2023-03-12T10:57:21.067Z,1.55
2023-03-12T10:59:48.718Z,1.65
2023-03-12T11:02:44.394Z,2.08
2023-03-12T11:05:26.762Z,1.40
2023-03-12T11:07:53.960Z,1.45
2023-03-12T11:10:26.378Z,1.38
2023-03-12T11:12:59.525Z,1.50
2023-03-12T11:15:29.034Z,1.80
2023-03-12T11:18:25.191Z,1.45
2023-03-12T11:21:16.099Z,1.15
2023-03-12T11:24:04.712Z,1.52
2023-03-12T11:26:39.741Z,0.90
2023-03-12T11:29:27.343Z,0.90
2023-03-12T11:32:03.198Z,0.77
2023-03-12T11:34:33.829Z,0.70
2023-03-12T11:37:12.744Z,0.88
2023-03-12T11:39:46.953Z,0.95
2023-03-12T11:42:25.564Z,0.77
2023-03-12T11:45:10.037Z,0.80
2023-03-12T11:47:59.370Z,0.70
2023-03-12T11:50:47.103Z,0.70
2023-03-12T11:53:37.081Z,0.77
2023-03-12T11:56:27.510Z,0.55
2023-03-12T11:59:05.423Z,0.60
2023-03-12T12:02:04.595Z,0.80
2023-03-12T12:04:44.572Z,0.90
2023-03-12T12:07:38.415Z,0.80
2023-03-12T12:10:24.046Z,0.80
2023-03-12T12:13:01.749Z,0.80
2023-03-12T12:15:38.491Z,1.00
2023-03-12T12:18:35.858Z,1.00
2023-03-12T12:21:30.146Z,0.98
2023-03-12T12:24:35.309Z,0.90
2023-03-12T12:27:23.975Z,0.95
2023-03-12T12:30:27.422Z,1.13
2023-03-12T12:33:22.669Z,1.00
2023-03-12T12:35:50.116Z,0.90
2023-03-12T12:38:30.700Z,0.75
2023-03-12T12:41:20.718Z,0.85
2023-03-12T12:43:50.206Z,0.80
2023-03-12T12:46:20.262Z,0.98
2023-03-12T12:48:58.565Z,1.10
2023-03-12T12:51:29.961Z,1.25
2023-03-12T12:54:00.924Z,1.20
2023-03-12T12:56:43.610Z,0.80
2023-03-12T12:59:34.332Z,1.40
2023-03-12T13:02:04.885Z,1.58
2023-03-12T13:04:39.373Z,1.10
2023-03-12T13:07:11.929Z,0.85
2023-03-12T13:09:51.130Z,1.30
2023-03-12T13:12:42.700Z,1.23
2023-03-12T13:15:30.755Z,1.35
2023-03-12T13:18:22.417Z,1.10
2023-03-12T13:20:51.927Z,1.10
2023-03-12T13:23:47.729Z,1.00
2023-03-12T13:26:49.951Z,1.17
2023-03-12T13:29:19.092Z,1.40
2023-03-12T13:31:45.565Z,1.00
2023-03-12T13:34:17.824Z,1.05
2023-03-12T13:36:46.091Z,1.45
2023-03-12T13:39:15.298Z,1.33
2023-03-12T13:41:55.298Z,1.52
2023-03-12T13:44:27.633Z,1.80
2023-03-12T13:47:27.598Z,1.77
2023-03-12T13:49:58.606Z,1.83
2023-03-12T13:52:28.853Z,1.55
2023-03-12T13:55:15.873Z,2.13
2023-03-12T13:57:46.866Z,1.33
2023-03-12T14:00:26.273Z,1.75
2023-03-12T14:03:16.229Z,2.13
2023-03-12T14:05:52.424Z,1.80
2023-03-12T14:08:50.140Z,2.10
2023-03-12T14:11:57.769Z,2.10
2023-03-12T14:14:44.346Z,2.50
2023-03-12T14:17:24.191Z,3.22
2023-03-12T14:19:57.254Z,2.50
2023-03-12T14:22:25.435Z,2.90
2023-03-12T14:24:58.927Z,3.38
2023-03-12T14:27:29.498Z,2.03
2023-03-12T14:30:25.639Z,2.05
2023-03-12T14:32:56.822Z,2.03
2023-03-12T14:35:28.789Z,2.28
2023-03-12T14:38:01.177Z,1.75
2023-03-12T14:40:38.282Z,1.45
2023-03-12T14:43:27.071Z,1.80
2023-03-12T14:46:02.098Z,2.00
2023-03-12T14:48:34.156Z,2.08
2023-03-12T14:51:03.122Z,1.77
2023-03-12T14:53:33.248Z,1.80
2023-03-12T14:56:24.137Z,1.50
2023-03-12T14:58:52.012Z,1.63
2023-03-12T15:01:22.082Z,3.78
2023-03-12T15:03:59.203Z,2.45
2023-03-12T15:06:40.090Z,1.75
2023-03-12T15:09:07.961Z,2.08
2023-03-12T15:11:37.024Z,2.40
2023-03-12T15:14:08.722Z,2.05
2023-03-12T15:16:36.028Z,1.90
2023-03-12T15:19:04.136Z,2.08
2023-03-12T15:21:35.374Z,2.20
2023-03-12T15:24:32.796Z,1.95
2023-03-12T15:26:52.454Z,2.20
2023-03-12T15:29:27.889Z,2.05
2023-03-12T15:32:00.078Z,2.40
2023-03-12T15:34:34.933Z,2.10
2023-03-12T15:37:22.050Z,2.40
2023-03-12T15:39:50.963Z,2.30
2023-03-12T15:42:20.630Z,2.47
2023-03-12T15:44:56.878Z,2.00
2023-03-12T15:47:33.475Z,2.13
2023-03-12T15:50:06.650Z,2.58
2023-03-12T15:52:35.550Z,2.40
2023-03-12T15:55:14.236Z,2.30
2023-03-12T15:57:46.739Z,2.83
2023-03-12T16:00:41.852Z,2.70
2023-03-12T16:03:20.450Z,2.83
2023-03-12T16:05:50.871Z,2.70
2023-03-12T16:08:27.139Z,2.90
2023-03-12T16:10:53.872Z,2.50
2023-03-12T16:13:27.202Z,2.30
2023-03-12T16:15:54.938Z,2.10
2023-03-12T16:18:24.739Z,2.63
2023-03-12T16:20:52.821Z,2.40
2023-03-12T16:23:20.212Z,2.90
2023-03-12T16:25:51.160Z,2.40
2023-03-12T16:28:19.755Z,2.90
2023-03-12T16:30:46.585Z,3.63
2023-03-12T16:33:16.041Z,2.97
2023-03-12T16:35:42.824Z,3.15
2023-03-12T16:38:09.360Z,3.20
2023-03-12T16:40:38.302Z,3.25
2023-03-12T16:43:11.244Z,3.40
2023-03-12T16:45:41.926Z,3.15
2023-03-12T16:48:14.688Z,3.67
2023-03-12T16:50:41.252Z,3.50
2023-03-12T16:53:07.769Z,3.92
2023-03-12T16:55:45.643Z,4.00
2023-03-12T16:58:15.283Z,8.60
2023-03-12T17:00:42.389Z,4.35
2023-03-12T17:03:18.502Z,3.47
2023-03-12T17:05:45.056Z,3.28
2023-03-12T17:08:11.546Z,3.47
2023-03-12T17:10:38.054Z,3.50
2023-03-12T17:13:04.923Z,3.78
2023-03-12T17:15:33.393Z,3.58
2023-03-12T17:18:03.445Z,3.33
2023-03-12T17:20:36.079Z,3.83
2023-03-12T17:23:04.165Z,3.55
2023-03-12T17:25:33.454Z,3.40
2023-03-12T17:28:00.475Z,3.92
2023-03-12T17:30:30.224Z,4.05
2023-03-12T17:33:09.601Z,3.67
2023-03-12T17:35:36.510Z,3.75
2023-03-12T17:38:06.590Z,3.47
2023-03-12T17:40:33.848Z,3.97
2023-03-12T17:43:00.342Z,3.80
2023-03-12T17:45:27.468Z,4.47
2023-03-12T17:47:53.933Z,3.88
2023-03-12T17:50:20.490Z,4.28
2023-03-12T17:52:47.093Z,4.50
2023-03-12T17:55:13.682Z,4.40
2023-03-12T17:57:40.799Z,4.03
2023-03-12T18:00:12.567Z,4.40
2023-03-12T18:02:40.692Z,4.97
2023-03-12T18:05:08.614Z,5.30
2023-03-12T18:07:35.504Z,5.00
2023-03-12T18:10:02.086Z,5.38
2023-03-12T18:12:28.913Z,5.10
2023-03-12T18:14:55.538Z,5.20
2023-03-12T18:17:22.138Z,5.43
2023-03-12T18:19:48.946Z,5.15
2023-03-12T18:22:15.420Z,5.65
2023-03-12T18:24:42.185Z,5.50
2023-03-12T18:27:08.650Z,5.88
2023-03-12T18:29:36.861Z,5.82
2023-03-12T18:32:04.225Z,5.43
2023-03-12T18:34:30.703Z,5.10
2023-03-12T18:36:57.264Z,5.57
2023-03-12T18:39:23.853Z,6.07
2023-03-12T18:41:50.335Z,5.72
2023-03-12T18:44:17.130Z,6.70
2023-03-12T18:46:43.810Z,6.03
2023-03-12T18:49:12.432Z,5.45
2023-03-12T18:51:39.235Z,5.55
2023-03-12T18:54:05.843Z,6.07
2023-03-12T18:56:32.344Z,5.85
2023-03-12T18:58:58.902Z,6.00
2023-03-12T19:01:26.157Z,5.75
2023-03-12T19:03:52.707Z,6.25
2023-03-12T19:06:19.211Z,6.38
2023-03-12T19:08:45.850Z,6.45
2023-03-12T19:11:15.046Z,5.95
2023-03-12T19:13:42.272Z,6.00
2023-03-12T19:16:11.233Z,6.20
2023-03-12T19:18:38.753Z,6.45
2023-03-12T19:21:07.622Z,5.95
2023-03-12T19:23:34.218Z,6.57
2023-03-12T19:26:01.053Z,5.68
2023-03-12T19:28:27.614Z,5.60
2023-03-12T19:31:00.482Z,5.93
2023-03-12T19:33:28.429Z,5.70
2023-03-12T19:35:55.242Z,6.10
2023-03-12T19:38:21.789Z,5.60
2023-03-12T19:40:49.998Z,5.93
2023-03-12T19:43:17.245Z,6.50
2023-03-12T19:45:44.023Z,5.85
2023-03-12T19:48:10.899Z,6.03
2023-03-12T19:50:37.435Z,6.40
2023-03-12T19:53:04.233Z,5.40
2023-03-12T19:55:30.841Z,7.72
2023-03-12T19:57:57.354Z,6.30
2023-03-12T20:00:23.953Z,5.50
2023-03-12T20:02:50.481Z,6.15
2023-03-12T20:05:19.677Z,5.78
2023-03-12T20:07:47.085Z,6.40
2023-03-12T20:10:13.842Z,5.97
2023-03-12T20:12:40.443Z,6.10
2023-03-12T20:15:07.655Z,5.60
2023-03-12T20:17:34.125Z,6.03
2023-03-12T20:20:01.260Z,6.88
2023-03-12T20:22:27.890Z,6.50
2023-03-12T20:24:54.416Z,6.13
2023-03-12T20:27:21.068Z,6.60
2023-03-12T20:29:49.788Z,4.93
2023-03-12T20:32:17.195Z,5.47
2023-03-12T20:34:46.929Z,6.22
2023-03-12T20:37:13.416Z,5.15
2023-03-12T20:39:40.056Z,5.75
2023-03-12T20:42:06.590Z,5.90
2023-03-12T20:44:33.027Z,4.80
2023-03-12T20:46:59.514Z,6.03
2023-03-12T20:49:26.008Z,5.47
2023-03-12T20:51:52.441Z,5.35
2023-03-12T20:54:19.063Z,5.18
2023-03-12T20:56:45.658Z,5.25
2023-03-12T20:59:12.474Z,5.03
2023-03-12T21:01:39.251Z,5.35
2023-03-12T21:04:05.943Z,4.93
2023-03-12T21:06:32.594Z,5.47
2023-03-12T21:08:59.080Z,5.55
2023-03-12T21:11:28.761Z,5.75
2023-03-12T21:13:55.195Z,5.15
2023-03-12T21:16:22.399Z,4.65
2023-03-12T21:18:49.118Z,5.43
2023-03-12T21:21:15.743Z,5.32
2023-03-12T21:23:42.381Z,4.60
2023-03-12T21:26:09.741Z,5.43
2023-03-12T21:28:36.697Z,5.15
2023-03-12T21:31:12.197Z,6.43
2023-03-12T21:33:39.076Z,5.20
2023-03-12T21:36:11.559Z,4.95
2023-03-12T21:38:39.860Z,5.45
2023-03-12T21:41:15.484Z,5.10
2023-03-12T21:43:43.272Z,4.75
2023-03-12T21:46:15.513Z,4.85
2023-03-12T21:48:44.617Z,5.45
2023-03-12T21:51:13.503Z,5.60
2023-03-12T21:53:39.926Z,4.55
2023-03-12T21:56:07.899Z,4.72
2023-03-12T21:58:36.314Z,5.63
2023-03-12T22:01:11.632Z,4.95
2023-03-12T22:03:39.086Z,5.40
2023-03-12T22:06:06.283Z,5.43
2023-03-12T22:08:33.727Z,5.10
2023-03-12T22:11:00.564Z,4.50
2023-03-12T22:13:27.169Z,5.15
2023-03-12T22:15:55.812Z,4.47
2023-03-12T22:18:23.236Z,4.63
2023-03-12T22:20:51.878Z,4.90
2023-03-12T22:23:18.653Z,4.82
2023-03-12T22:25:45.882Z,4.93
2023-03-12T22:28:12.755Z,5.00
2023-03-12T22:30:39.276Z,5.07
2023-03-12T22:33:05.720Z,4.65
2023-03-12T22:35:32.205Z,4.88
2023-03-12T22:37:58.682Z,4.55
2023-03-12T22:40:25.958Z,4.07
2023-03-12T22:42:53.720Z,4.10
2023-03-12T22:45:20.235Z,3.72
2023-03-12T22:47:46.720Z,4.72
2023-03-12T22:50:13.328Z,4.50
2023-03-12T22:52:40.332Z,4.25
2023-03-12T22:55:07.253Z,4.50
2023-03-12T22:57:34.967Z,4.13
2023-03-12T23:00:01.437Z,4.20
2023-03-12T23:02:27.908Z,4.35
2023-03-12T23:04:54.394Z,3.80
2023-03-12T23:07:20.880Z,3.55
2023-03-12T23:09:47.402Z,4.38
2023-03-12T23:12:13.885Z,4.20
2023-03-12T23:14:40.297Z,4.30
2023-03-12T23:17:09.414Z,3.35
2023-03-12T23:19:36.568Z,3.67
2023-03-12T23:22:03.196Z,3.92
2023-03-12T23:24:31.367Z,3.75
2023-03-12T23:26:57.897Z,3.40
2023-03-12T23:29:24.332Z,3.92
2023-03-12T23:31:50.846Z,3.85
2023-03-12T23:34:17.353Z,4.25
2023-03-12T23:36:46.001Z,3.55
2023-03-12T23:39:13.347Z,3.28
2023-03-12T23:41:39.889Z,3.60
2023-03-12T23:44:06.434Z,3.63
2023-03-12T23:46:33.338Z,3.80
2023-03-12T23:48:59.809Z,3.22
2023-03-12T23:51:28.713Z,3.92
2023-03-12T23:54:00.917Z,3.47
2023-03-12T23:56:34.248Z,3.30
2023-03-12T23:59:00.750Z,3.28
